This is the latest recevied weather packets stored in our database for station/object OM0AGP-15. If no packets are shown the sender has not sent any weather packets the latest 10 day(s).
| Time | Temp. | Humidity | Pressure | Rain* | Wind** | Luminosity | Snow |
|---|---|---|---|---|---|---|---|
| 1777785136 | 13.89° C | 40% | 1021.6 hPa | - | - | - | - |
| 1777784236 | 11.67° C | 44% | 1021.8 hPa | - | - | - | - |
| 1777783336 | 9.44° C | 49% | 1021.8 hPa | - | - | - | - |
| 1777782436 | 6.67° C | 58% | 1021.9 hPa | - | - | - | - |
| 1777781536 | 2.78° C | 76% | 1021.8 hPa | - | - | - | - |
| 1777780635 | 1.11° C | 84% | 1021.8 hPa | - | - | - | - |
| 1777779735 | 1.11° C | 85% | 1021.8 hPa | - | - | - | - |
| 1777778835 | 0.56° C | 85% | 1021.8 hPa | - | - | - | - |
| 1777777935 | 1.11° C | 83% | 1021.8 hPa | - | - | - | - |
| 1777777035 | 1.11° C | 82% | 1021.7 hPa | - | - | - | - |
| 1777776135 | 1.67° C | 82% | 1021.6 hPa | - | - | - | - |
| 1777775235 | 1.11° C | 84% | 1021.6 hPa | - | - | - | - |
| 1777774335 | 2.22° C | 82% | 1021.7 hPa | - | - | - | - |
| 1777773435 | 1.67° C | 80% | 1021.7 hPa | - | - | - | - |
| 1777772535 | 2.22° C | 77% | 1021.7 hPa | - | - | - | - |
| 1777771635 | 2.22° C | 79% | 1021.6 hPa | - | - | - | - |
| 1777770735 | 2.22° C | 80% | 1021.5 hPa | - | - | - | - |
| 1777769835 | 2.78° C | 79% | 1021.6 hPa | - | - | - | - |
| 1777768935 | 2.78° C | 78% | 1021.6 hPa | - | - | - | - |
| 1777768034 | 2.78° C | 79% | 1021.7 hPa | - | - | - | - |
| 1777767134 | 2.78° C | 78% | 1021.7 hPa | - | - | - | - |
| 1777766234 | 2.78° C | 78% | 1021.7 hPa | - | - | - | - |
| 1777765334 | 2.78° C | 78% | 1021.7 hPa | - | - | - | - |
| 1777764434 | 3.33° C | 77% | 1021.8 hPa | - | - | - | - |
| 1777763534 | 3.33° C | 76% | 1022 hPa | - | - | - | - |
* Rain since midnight (hover to see other rain measurements)
** Current wind speed in m/s (hover to see current wind gust speed)